Seinäjoki, Suomi

30. toukokuuta 2015 klo 07:10 (EEST) (GMT +0300)
Kasperi Seinjoki | | Change Station
CLOSE
Current Station
Omat sääasemat
Location: Seinjoki, ETEL-POHJANMAA
Korkeus: 182 ft
Lähimmät sääasemat

Kork 182 ft 62.77 °N, 22.87 °E | Updated 36 seconds ago

Clear
Selkeää
48.6 °F
Tuntuu kuin 47 °F
N
5.0
Tuuli Suunnaltaan vaihteleva Tuuli ilmansuunnasta Etelän ja lounaan välinen
Gusts 9.0 mph

Tänään
Korkea -- | Matala -- °F
--% Sateen mahd.
Eilen
Korkea -- | Matala -- °F
Precip. -- tuumaa
3:52 AM 11:02 PM
Kasvava kupera kuu, 88% visible
Ilmanpaine 29.77 tuumaa
Näkyvyys -9999.0 mailia
Pilviä
Tuulen hyytävyys 47 °F
Kastepiste 44 °F
Ilmankosteus 84%
Sademäärä 0.00 tuumaa
Lumensyvyys Ei saatavilla
UV Ei saatavilla
Pollen Ei saatavilla
Ilmanlaatu Ei saatavilla
Flu Activity Ei saatavilla
METAR EFVA 300350Z AUTO 19010KT CAVOK 09/05 Q1008

More Conditions Fewer Conditions

Ilmanpaine 29.77 tuumaa
Näkyvyys -9999.0 mailia
Pilviä
Tuulen hyytävyys 47 °F
Kastepiste 44 °F
Ilmankosteus 84%
Sademäärä 0.00 tuumaa
Lumensyvyys Ei saatavilla
UV Ei saatavilla
Pollen Ei saatavilla
Ilmanlaatu Ei saatavilla
Flu Activity Ei saatavilla
METAR EFVA 300350Z AUTO 19010KT CAVOK 09/05 Q1008

More Conditions Fewer Conditions

10-Day Weather Forecast

Almanac

Tähtitiede

May. 30, 2015 Nousuaika Laskuaika
Valoisa aika
Porvarillinen hämärä
Nauttinen hämärä
Astronominen hämärä
Kuu
Näkyvän valon pituus
Päivän pituus
Tomorrow will be .
, % of the Moon is Illuminated

Tämän päivän ennätykset

Country Highs Country Lows

Community

WunderPhotos

Upload Photos

1,825,446 photos uploaded!

WunderBlogs® & News

Nearby

Ilmanlaatu

  Ilmanlaatu AQ Index Pollutant
Not available.

Lumensyvyys

Station Depth Korkeus

Maanjäristysaktiivisuus

Paikkakunta Distance Mag. Time & Date
Minimum magnitude displayed is 2.5.

Coastal Water Temperatures

Paikka Lämpötila

Stations

Lähimmät sääasemat

Aseman sijainti Lämpötila Tuulen hyytävyys Kastepiste Ilmankosteus Tuuli Precip. Kork Päivitetty Tyyppi